Time;durP1;ratioP1;P1;durP2;ratioP2;P2;SDS_P1;SDS_P2;PMS_P1;PMS_P2;Temp;Humidity;BMP_temperature;BMP_pressure;BME280_temperature;BME280_humidity;BME280_pressure;Samples;Min_cycle;Max_cycle;Signal;HPM_P1;HPM_P2
2022/03/24 00:02:14;;;;;;;78.03;51.83;;;8.10;76.80;;;;;;5054634;28;20076;-78
2022/03/24 00:04:40;;;;;;;72.05;52.78;;;8.10;76.80;;;;;;5054465;28;20041;-78
2022/03/24 00:07:06;;;;;;;69.63;53.47;;;8.10;76.80;;;;;;5037658;28;20045;-78
2022/03/24 00:09:32;;;;;;;68.72;52.67;;;8.00;76.90;;;;;;5054316;28;20040;-78
2022/03/24 00:11:58;;;;;;;69.22;53.33;;;8.00;76.90;;;;;;5054570;28;20198;-78
2022/03/24 00:14:24;;;;;;;70.70;53.05;;;8.00;77.00;;;;;;5054254;28;20041;-78
2022/03/24 00:16:50;;;;;;;68.45;52.30;;;8.00;77.00;;;;;;5054351;28;20379;-78
2022/03/24 00:19:17;;;;;;;69.60;51.78;;;8.00;77.10;;;;;;5054151;28;20045;-78
2022/03/24 00:21:44;;;;;;;68.35;52.45;;;8.00;77.10;;;;;;5054311;28;20041;-79
2022/03/24 00:24:10;;;;;;;74.38;54.40;;;8.00;77.10;;;;;;5054277;28;20148;-79
2022/03/24 00:26:37;;;;;;;69.90;52.53;;;8.00;77.10;;;;;;5037209;28;20132;-79
2022/03/24 00:29:03;;;;;;;70.30;51.25;;;7.90;77.30;;;;;;5053639;28;20114;-78
2022/03/24 00:31:30;;;;;;;68.80;50.15;;;7.90;77.10;;;;;;5037247;28;20100;-78
2022/03/24 00:33:55;;;;;;;68.43;52.40;;;7.90;77.30;;;;;;5054131;28;20037;-78
2022/03/24 00:36:22;;;;;;;72.50;52.13;;;7.90;77.40;;;;;;5036254;28;20090;-79
2022/03/24 00:38:52;;;;;;;72.60;53.75;;;7.80;77.40;;;;;;5053991;28;20484;-78
2022/03/24 00:41:19;;;;;;;70.00;51.22;;;7.80;77.50;;;;;;5054043;28;20037;-78
2022/03/24 00:43:45;;;;;;;74.32;54.33;;;7.80;77.60;;;;;;5053673;28;20033;-79
2022/03/24 00:46:10;;;;;;;70.25;50.92;;;7.80;77.50;;;;;;5053597;28;20083;-78
2022/03/24 00:48:36;;;;;;;60.53;46.53;;;7.70;77.60;;;;;;5053600;28;20041;-79
2022/03/24 00:51:03;;;;;;;74.65;53.03;;;7.80;77.70;;;;;;5053780;28;20144;-79
2022/03/24 00:53:29;;;;;;;71.55;50.80;;;7.80;77.90;;;;;;5037114;28;20445;-79
2022/03/24 00:55:56;;;;;;;74.53;54.08;;;7.70;77.80;;;;;;5053905;28;20071;-80
2022/03/24 00:58:22;;;;;;;78.18;55.25;;;7.70;77.80;;;;;;5053447;28;20151;-79
2022/03/24 01:00:48;;;;;;;71.40;52.38;;;7.70;77.90;;;;;;5053403;28;20045;-79
2022/03/24 01:03:13;;;;;;;66.93;49.78;;;7.70;77.90;;;;;;5036806;28;20044;-79
2022/03/24 01:05:39;;;;;;;66.75;48.17;;;7.70;78.00;;;;;;5036629;28;20042;-79
2022/03/24 01:08:07;;;;;;;75.72;53.05;;;7.80;78.10;;;;;;5053124;28;20073;-79
2022/03/24 01:10:34;;;;;;;76.65;52.20;;;7.80;78.20;;;;;;5053387;28;20037;-79
2022/03/24 01:13:01;;;;;;;76.13;55.25;;;7.80;78.20;;;;;;5036819;28;20044;-79
2022/03/24 01:15:27;;;;;;;83.13;56.17;;;7.70;78.30;;;;;;5053030;28;20036;-79
2022/03/24 01:17:53;;;;;;;76.50;55.85;;;7.60;78.20;;;;;;5036468;28;20133;-79
2022/03/24 01:20:19;;;;;;;80.97;55.22;;;7.60;78.30;;;;;;5053012;28;20041;-79
2022/03/24 01:22:45;;;;;;;80.68;56.67;;;7.60;78.40;;;;;;5052849;28;20047;-80
2022/03/24 01:25:12;;;;;;;80.25;56.38;;;7.60;78.60;;;;;;5036798;28;20136;-79
2022/03/24 01:27:41;;;;;;;81.28;56.67;;;7.60;78.50;;;;;;5055103;28;20049;-79
2022/03/24 01:30:10;;;;;;;82.38;56.05;;;7.50;78.30;;;;;;5040064;28;20051;-79
2022/03/24 01:32:37;;;;;;;88.43;59.13;;;7.50;78.30;;;;;;5056076;28;20086;-80
2022/03/24 01:35:07;;;;;;;82.72;58.22;;;7.50;78.30;;;;;;5055979;28;20083;-79
2022/03/24 01:37:38;;;;;;;83.68;59.17;;;7.50;78.30;;;;;;5023657;28;20041;-79
2022/03/24 01:40:06;;;;;;;87.38;61.08;;;7.50;78.50;;;;;;5055961;28;20082;-79
2022/03/24 01:42:34;;;;;;;87.32;62.42;;;7.50;78.50;;;;;;5055881;28;20052;-79
2022/03/24 01:45:00;;;;;;;91.32;64.00;;;7.50;78.50;;;;;;5056066;28;20467;-79
2022/03/24 01:47:26;;;;;;;91.78;64.05;;;7.40;78.70;;;;;;5038741;28;20477;-80
2022/03/24 01:49:53;;;;;;;91.25;64.38;;;7.40;78.70;;;;;;5055761;28;20067;-79
2022/03/24 01:52:19;;;;;;;94.68;64.88;;;7.30;78.80;;;;;;5055720;28;20047;-79
2022/03/24 01:54:48;;;;;;;91.55;65.45;;;7.30;78.70;;;;;;5039015;28;20040;-80
2022/03/24 01:57:15;;;;;;;87.43;62.10;;;7.30;78.80;;;;;;5055549;28;20119;-79
2022/03/24 01:59:41;;;;;;;91.45;65.15;;;7.30;79.00;;;;;;5039186;28;20127;-79
2022/03/24 02:02:09;;;;;;;89.93;64.78;;;7.20;79.00;;;;;;5055503;28;20536;-79
2022/03/24 02:04:36;;;;;;;94.10;66.65;;;7.10;79.00;;;;;;5055297;28;20045;-79
2022/03/24 02:07:05;;;;;;;95.80;67.13;;;7.10;79.30;;;;;;5055345;28;20133;-79
2022/03/24 02:09:40;;;;;;;92.18;65.57;;;7.10;79.50;;;;;;5055700;28;20063;-79
2022/03/24 02:12:11;;;;;;;94.18;67.15;;;7.10;79.50;;;;;;5023647;28;20115;-79
2022/03/24 02:14:38;;;;;;;95.72;67.78;;;7.10;79.90;;;;;;5055627;28;20035;-79
2022/03/24 02:17:05;;;;;;;97.50;66.43;;;7.10;79.90;;;;;;5038886;28;20040;-80
2022/03/24 02:19:31;;;;;;;102.03;69.97;;;7.00;80.50;;;;;;5055305;28;20514;-79
2022/03/24 02:22:16;;;;;;;108.93;72.20;;;7.00;80.60;;;;;;5038528;28;20080;-79
2022/03/24 02:24:45;;;;;;;102.03;70.53;;;7.00;80.10;;;;;;5038682;28;20221;-79
2022/03/24 02:27:11;;;;;;;94.82;64.20;;;7.00;80.40;;;;;;5055177;28;20447;-79
2022/03/24 02:29:38;;;;;;;98.80;68.55;;;7.00;81.20;;;;;;5051652;28;20397;-79
2022/03/24 02:32:08;;;;;;;104.95;71.22;;;7.00;81.30;;;;;;5051775;28;20037;-79
2022/03/24 02:34:38;;;;;;;101.13;70.15;;;7.00;80.70;;;;;;5051975;28;20389;-79
2022/03/24 02:37:12;;;;;;;102.80;71.13;;;6.90;80.60;;;;;;5052043;28;20048;-79
2022/03/24 02:39:41;;;;;;;104.72;71.97;;;6.90;80.80;;;;;;5051632;28;20547;-79
2022/03/24 02:42:14;;;;;;;104.57;71.15;;;6.90;81.60;;;;;;5051688;28;20048;-79
2022/03/24 02:44:49;;;;;;;105.95;70.22;;;6.80;81.60;;;;;;5051748;28;20073;-79
2022/03/24 02:47:15;;;;;;;;;;;6.80;81.60;;;;;;5051922;28;20044;-79
2022/03/24 02:49:43;;;;;;;104.80;68.25;;;6.80;82.70;;;;;;5051795;28;20280;-79
2022/03/24 02:52:09;;;;;;;102.22;68.63;;;6.80;82.20;;;;;;5051633;28;20075;-79
2022/03/24 02:54:36;;;;;;;100.72;69.18;;;6.70;81.70;;;;;;5051517;28;20124;-79
2022/03/24 02:57:02;;;;;;;102.78;68.75;;;6.70;82.10;;;;;;5051701;28;20040;-79
2022/03/24 02:59:28;;;;;;;111.60;75.10;;;6.70;82.00;;;;;;5054062;28;20109;-79
2022/03/24 03:02:07;;;;;;;109.75;72.40;;;6.70;82.00;;;;;;5039091;28;20127;-80
2022/03/24 03:04:34;;;;;;;116.32;76.78;;;6.70;82.10;;;;;;5055648;28;20052;-79
2022/03/24 03:07:02;;;;;;;116.05;76.78;;;6.70;82.40;;;;;;5055358;28;20174;-79
2022/03/24 03:09:30;;;;;;;113.13;75.93;;;6.70;82.50;;;;;;5055516;28;20041;-79
2022/03/24 03:11:56;;;;;;;104.68;70.88;;;6.70;82.80;;;;;;5055500;28;20120;-79
2022/03/24 03:14:22;;;;;;;105.55;71.18;;;6.70;83.20;;;;;;5055436;28;20044;-79
2022/03/24 03:16:48;;;;;;;106.28;73.35;;;6.70;83.40;;;;;;5038687;28;20506;-78
2022/03/24 03:19:18;;;;;;;106.90;72.35;;;6.70;83.40;;;;;;5055557;28;20044;-79
2022/03/24 03:21:45;;;;;;;106.93;71.95;;;6.70;83.30;;;;;;5055305;28;20052;-79
2022/03/24 03:24:11;;;;;;;113.18;72.35;;;6.70;83.10;;;;;;5055467;28;20051;-79
2022/03/24 03:26:38;;;;;;;110.13;74.72;;;6.70;83.20;;;;;;5055193;28;20088;-79
2022/03/24 03:29:06;;;;;;;106.93;73.13;;;6.70;83.30;;;;;;5055065;28;20490;-79
2022/03/24 03:31:34;;;;;;;111.43;75.28;;;6.70;83.10;;;;;;5055084;28;20103;-79
2022/03/24 03:34:00;;;;;;;102.82;70.65;;;6.70;83.00;;;;;;5038428;28;20477;-79
2022/03/24 03:36:26;;;;;;;100.15;69.50;;;6.60;83.10;;;;;;5054951;28;20041;-79
2022/03/24 03:38:52;;;;;;;104.90;71.80;;;6.60;82.90;;;;;;5038618;28;20044;-79
2022/03/24 03:41:22;;;;;;;109.80;71.63;;;6.50;83.00;;;;;;5054998;28;20444;-79
2022/03/24 03:43:49;;;;;;;102.25;68.57;;;6.50;83.00;;;;;;5038775;28;20067;-79
2022/03/24 03:46:15;;;;;;;103.35;69.22;;;6.50;82.90;;;;;;5054731;28;20464;-79
2022/03/24 03:48:42;;;;;;;106.47;71.43;;;6.50;82.90;;;;;;5054658;28;20040;-79
2022/03/24 03:51:08;;;;;;;104.63;69.65;;;6.40;83.00;;;;;;5038437;28;20076;-79
2022/03/24 03:53:35;;;;;;;106.75;69.90;;;6.40;83.00;;;;;;5054703;28;20037;-79
2022/03/24 03:56:02;;;;;;;101.82;68.43;;;6.40;83.00;;;;;;5054597;28;20288;-79
2022/03/24 03:58:28;;;;;;;101.63;69.00;;;6.30;83.00;;;;;;5038160;28;20053;-79
2022/03/24 04:00:55;;;;;;;108.65;72.82;;;6.30;82.90;;;;;;5054549;28;20082;-79
2022/03/24 04:03:25;;;;;;;106.03;67.82;;;6.30;83.10;;;;;;5054445;28;20482;-79
2022/03/24 04:05:56;;;;;;;104.50;69.13;;;6.20;82.90;;;;;;5054459;28;20045;-79
2022/03/24 04:08:22;;;;;;;111.25;71.68;;;6.20;82.90;;;;;;5054323;28;20044;-79
2022/03/24 04:10:49;;;;;;;105.28;70.18;;;6.20;83.20;;;;;;5054148;28;20041;-79
2022/03/24 04:13:19;;;;;;;107.90;69.15;;;6.10;83.40;;;;;;5054349;28;20084;-79
2022/03/24 04:15:49;;;;;;;106.55;69.45;;;6.10;83.40;;;;;;5054110;28;20044;-79
2022/03/24 04:18:16;;;;;;;103.07;68.13;;;6.20;83.70;;;;;;5037628;28;20048;-78
2022/03/24 04:20:42;;;;;;;97.20;65.68;;;6.10;83.80;;;;;;5054135;28;20045;-79
2022/03/24 04:23:08;;;;;;;107.70;69.07;;;6.10;83.80;;;;;;5037498;28;20052;-78
2022/03/24 04:25:35;;;;;;;108.32;70.85;;;6.10;83.70;;;;;;5037565;28;20770;-79
2022/03/24 04:28:03;;;;;;;106.82;69.07;;;6.10;83.70;;;;;;5053887;28;20053;-79
2022/03/24 04:30:30;;;;;;;104.80;67.50;;;6.10;83.80;;;;;;5054070;28;20131;-79
2022/03/24 04:32:56;;;;;;;106.50;68.10;;;6.00;83.80;;;;;;5053955;28;20051;-79
2022/03/24 04:35:22;;;;;;;101.80;66.65;;;6.00;83.70;;;;;;5020844;28;20033;-79
2022/03/24 04:37:49;;;;;;;105.18;68.70;;;6.00;83.80;;;;;;5053891;28;20052;-78
2022/03/24 04:40:18;;;;;;;103.40;69.30;;;6.00;83.70;;;;;;5053799;28;20048;-78
2022/03/24 04:42:52;;;;;;;97.07;64.80;;;6.00;83.70;;;;;;5054104;28;20045;-78
2022/03/24 04:45:19;;;;;;;107.80;68.40;;;6.00;83.70;;;;;;5054038;28;20366;-78
2022/03/24 04:47:46;;;;;;;96.07;64.43;;;5.90;83.80;;;;;;5053540;28;20490;-79
2022/03/24 04:50:13;;;;;;;100.10;65.22;;;5.90;83.70;;;;;;5053707;28;20083;-78
2022/03/24 04:52:39;;;;;;;99.63;65.68;;;5.90;83.80;;;;;;5053583;28;20041;-78
2022/03/24 04:55:09;;;;;;;102.55;66.35;;;5.90;83.70;;;;;;5053780;28;20506;-78
2022/03/24 04:57:35;;;;;;;109.75;70.82;;;5.80;83.80;;;;;;5053369;28;20044;-76
2022/03/24 05:00:01;;;;;;;107.10;68.60;;;5.80;83.90;;;;;;5053458;28;20048;-77
2022/03/24 05:02:26;;;;;;;103.30;64.80;;;5.80;84.00;;;;;;5020370;28;20040;-77
2022/03/24 05:04:54;;;;;;;100.25;64.70;;;5.80;84.10;;;;;;5053379;28;20131;-77
2022/03/24 05:07:20;;;;;;;107.32;67.47;;;5.80;84.10;;;;;;5036911;28;20179;-77
2022/03/24 05:09:46;;;;;;;99.40;65.15;;;5.70;84.20;;;;;;5053459;28;20044;-76
2022/03/24 05:12:11;;;;;;;97.97;63.63;;;5.70;84.40;;;;;;5053240;28;20508;-76
2022/03/24 05:14:37;;;;;;;102.65;65.35;;;5.70;84.50;;;;;;5053203;28;20041;-76
2022/03/24 05:17:03;;;;;;;101.90;64.18;;;5.70;84.50;;;;;;5053327;28;20041;-77
2022/03/24 05:19:31;;;;;;;98.93;64.50;;;5.60;84.40;;;;;;5036567;28;20465;-77
2022/03/24 05:21:57;;;;;;;101.57;64.82;;;5.60;84.40;;;;;;5052423;28;20053;-77
2022/03/24 05:24:23;;;;;;;93.55;61.55;;;5.60;84.40;;;;;;5036425;28;20048;-77
2022/03/24 05:26:48;;;;;;;93.40;59.90;;;5.60;84.60;;;;;;5052525;28;20455;-77
2022/03/24 05:29:14;;;;;;;101.25;64.03;;;5.60;84.60;;;;;;5052408;28;20049;-77
2022/03/24 05:31:40;;;;;;;107.03;64.72;;;5.60;84.90;;;;;;5052709;28;20493;-77
2022/03/24 05:34:06;;;;;;;91.60;59.40;;;5.70;85.10;;;;;;5053041;28;20040;-77
2022/03/24 05:36:32;;;;;;;83.68;54.30;;;5.70;85.30;;;;;;5052929;28;20516;-77
2022/03/24 05:38:57;;;;;;;87.15;57.08;;;5.60;85.20;;;;;;5036103;28;20048;-77
2022/03/24 05:41:24;;;;;;;75.70;50.95;;;5.70;85.40;;;;;;5052654;28;20044;-77
2022/03/24 05:44:04;;;;;;;76.78;51.22;;;5.60;85.50;;;;;;5052893;28;20064;-77
2022/03/24 05:46:31;;;;;;;79.88;50.40;;;5.60;85.40;;;;;;5052443;28;20041;-77
2022/03/24 05:48:58;;;;;;;77.30;49.92;;;5.60;85.70;;;;;;5052455;28;20120;-77
2022/03/24 05:51:24;;;;;;;73.85;48.42;;;5.50;85.60;;;;;;5035753;28;20051;-77
2022/03/24 05:53:49;;;;;;;79.90;51.17;;;5.60;85.80;;;;;;5019682;28;20064;-77
2022/03/24 05:56:16;;;;;;;81.18;54.75;;;5.50;85.70;;;;;;5035997;28;20519;-77
2022/03/24 05:58:42;;;;;;;89.80;57.03;;;5.50;85.60;;;;;;5052597;28;20423;-77
2022/03/24 06:01:09;;;;;;;89.47;55.67;;;5.50;85.70;;;;;;5035927;28;20088;-77
2022/03/24 06:03:36;;;;;;;98.53;62.88;;;5.50;85.70;;;;;;5035664;28;20052;-78
2022/03/24 06:06:04;;;;;;;105.10;64.07;;;5.50;85.70;;;;;;5035931;28;20128;-77
2022/03/24 06:08:30;;;;;;;111.95;67.07;;;5.50;85.70;;;;;;5052103;28;20086;-77
2022/03/24 06:10:57;;;;;;;109.75;70.10;;;5.50;86.00;;;;;;5052375;28;20114;-77
2022/03/24 06:13:22;;;;;;;112.35;69.93;;;5.60;86.30;;;;;;5052261;28;20067;-77
2022/03/24 06:15:50;;;;;;;117.18;72.22;;;5.60;86.40;;;;;;5035563;28;20485;-77
2022/03/24 06:18:17;;;;;;;120.47;70.35;;;5.60;86.50;;;;;;5035677;28;20508;-77
2022/03/24 06:20:45;;;;;;;113.30;69.07;;;5.70;86.60;;;;;;5052140;28;20071;-77
2022/03/24 06:23:11;;;;;;;117.30;71.38;;;5.70;86.50;;;;;;5051978;28;20051;-77
2022/03/24 06:25:37;;;;;;;112.97;68.20;;;5.80;86.40;;;;;;5035160;28;20294;-77
2022/03/24 06:28:06;;;;;;;108.03;67.32;;;5.80;86.60;;;;;;5035084;28;20505;-77
2022/03/24 06:30:32;;;;;;;103.72;64.13;;;5.80;86.70;;;;;;5051803;28;20490;-77
2022/03/24 06:32:58;;;;;;;99.13;63.85;;;5.80;86.90;;;;;;5051803;28;20033;-77
2022/03/24 06:35:24;;;;;;;109.18;67.80;;;5.90;86.80;;;;;;5051893;28;20040;-77
2022/03/24 06:37:51;;;;;;;102.32;64.70;;;6.00;86.70;;;;;;5051985;28;20390;-77
2022/03/24 06:40:18;;;;;;;99.75;61.67;;;6.00;86.80;;;;;;5035219;28;20571;-77
2022/03/24 06:42:44;;;;;;;90.25;57.50;;;6.10;87.00;;;;;;5051875;28;20409;-77
2022/03/24 06:45:11;;;;;;;100.95;64.57;;;6.10;87.10;;;;;;5035125;28;20131;-78
2022/03/24 06:47:41;;;;;;;86.50;59.35;;;6.20;87.10;;;;;;5051634;28;20370;-77
2022/03/24 06:50:12;;;;;;;99.03;65.40;;;6.30;86.80;;;;;;5051473;28;20481;-77
2022/03/24 06:52:42;;;;;;;94.40;60.78;;;6.40;86.30;;;;;;5019358;28;20036;-77
2022/03/24 06:55:09;;;;;;;105.32;64.63;;;6.50;86.90;;;;;;5019006;28;20077;-77
2022/03/24 06:57:36;;;;;;;101.22;64.68;;;6.60;86.80;;;;;;5051717;28;20464;-77
2022/03/24 07:00:04;;;;;;;102.63;65.47;;;6.60;86.80;;;;;;5034910;28;20045;-78
2022/03/24 07:02:29;;;;;;;104.03;67.70;;;6.70;86.90;;;;;;5034723;28;20129;-77
2022/03/24 07:04:55;;;;;;;82.30;54.08;;;6.80;86.50;;;;;;5051691;28;20124;-78
2022/03/24 07:07:20;;;;;;;98.15;61.78;;;6.90;87.00;;;;;;5018268;28;20416;-78
2022/03/24 07:09:46;;;;;;;91.03;58.83;;;7.00;86.90;;;;;;5034831;28;20073;-77
2022/03/24 07:12:12;;;;;;;91.30;58.35;;;7.00;86.50;;;;;;5034832;28;20048;-77
2022/03/24 07:14:37;;;;;;;89.47;58.30;;;7.10;85.60;;;;;;5018532;28;20041;-77
2022/03/24 07:17:04;;;;;;;94.30;60.78;;;7.30;85.90;;;;;;5051248;28;20094;-77
2022/03/24 07:19:30;;;;;;;92.13;59.88;;;7.30;85.90;;;;;;5051627;28;20045;-78
2022/03/24 07:21:55;;;;;;;102.15;66.72;;;7.50;86.10;;;;;;5051310;28;20048;-78
2022/03/24 07:24:21;;;;;;;102.70;66.15;;;7.50;86.10;;;;;;5051281;28;20067;-77
2022/03/24 07:26:47;;;;;;;105.35;66.82;;;7.60;85.80;;;;;;5051438;28;20214;-77
2022/03/24 07:29:13;;;;;;;103.32;64.85;;;7.80;85.80;;;;;;5034472;28;20413;-77
2022/03/24 07:31:39;;;;;;;97.85;64.22;;;7.90;86.00;;;;;;5051149;28;20045;-78
2022/03/24 07:34:05;;;;;;;91.38;58.40;;;8.00;86.10;;;;;;5051418;28;20043;-78
2022/03/24 07:36:31;;;;;;;97.05;63.42;;;8.10;85.90;;;;;;5034804;28;20397;-78
2022/03/24 07:38:58;;;;;;;100.93;66.28;;;8.10;85.90;;;;;;5051078;28;20082;-79
2022/03/24 07:41:27;;;;;;;102.80;66.45;;;8.20;85.90;;;;;;5034668;28;20083;-78
2022/03/24 07:43:53;;;;;;;98.15;64.18;;;8.30;85.70;;;;;;5051030;28;20040;-78
2022/03/24 07:46:18;;;;;;;89.45;58.97;;;8.40;85.80;;;;;;5054787;28;20045;-79
2022/03/24 07:48:48;;;;;;;100.45;67.07;;;8.50;85.60;;;;;;5054730;28;20473;-79
2022/03/24 07:51:15;;;;;;;104.93;67.00;;;8.60;85.70;;;;;;5038875;28;20076;-78
2022/03/24 07:53:47;;;;;;;98.88;65.00;;;8.60;85.90;;;;;;5054681;28;20033;-77
2022/03/24 07:56:14;;;;;;;98.00;63.75;;;8.80;85.30;;;;;;5037947;28;20102;-78
2022/03/24 07:58:40;;;;;;;101.30;65.93;;;8.90;85.20;;;;;;5054559;28;20072;-78
2022/03/24 08:01:06;;;;;;;93.70;63.30;;;9.00;85.20;;;;;;5054559;28;20079;-78
2022/03/24 08:03:33;;;;;;;100.32;67.93;;;9.00;85.00;;;;;;5054538;28;20253;-77
2022/03/24 08:05:59;;;;;;;90.10;60.85;;;9.10;85.00;;;;;;5054382;28;20051;-78
2022/03/24 08:08:26;;;;;;;89.50;60.83;;;9.20;85.00;;;;;;5054427;28;20123;-78
2022/03/24 08:10:53;;;;;;;90.88;59.35;;;9.30;84.80;;;;;;5054638;28;20114;-78
2022/03/24 08:13:20;;;;;;;86.85;59.70;;;9.40;84.60;;;;;;5054196;28;20037;-78
2022/03/24 08:15:47;;;;;;;98.57;65.13;;;9.50;84.50;;;;;;5037836;28;20405;-77
2022/03/24 08:18:14;;;;;;;84.72;57.30;;;9.60;84.50;;;;;;5054159;28;20049;-78
2022/03/24 08:20:42;;;;;;;88.22;58.22;;;9.70;84.20;;;;;;5037858;28;20385;-78
2022/03/24 08:23:08;;;;;;;98.15;64.85;;;9.70;84.20;;;;;;5054146;28;20482;-78
2022/03/24 08:25:35;;;;;;;90.07;61.38;;;9.90;84.00;;;;;;5054089;28;20044;-77
2022/03/24 08:28:02;;;;;;;93.35;62.50;;;9.90;83.70;;;;;;5053950;28;20448;-78
2022/03/24 08:30:28;;;;;;;84.50;57.30;;;10.00;83.40;;;;;;5037389;28;20131;-78
2022/03/24 08:32:54;;;;;;;85.55;58.35;;;10.10;83.10;;;;;;5037383;28;20038;-78
2022/03/24 08:35:20;;;;;;;82.57;56.97;;;10.20;82.70;;;;;;5054111;28;20039;-78
2022/03/24 08:37:46;;;;;;;89.20;61.83;;;10.30;82.20;;;;;;5037267;28;20071;-78
2022/03/24 08:40:12;;;;;;;86.55;57.47;;;10.40;82.10;;;;;;5053884;28;20482;-78
2022/03/24 08:42:40;;;;;;;85.43;57.22;;;10.50;81.50;;;;;;5053964;28;20036;-78
2022/03/24 08:45:09;;;;;;;79.65;55.17;;;10.60;81.30;;;;;;5053999;28;20472;-78
2022/03/24 08:47:35;;;;;;;78.72;54.42;;;10.70;81.10;;;;;;5053517;28;20493;-79
2022/03/24 08:50:01;;;;;;;82.55;58.05;;;10.80;81.00;;;;;;5053680;28;20127;-79
2022/03/24 08:52:27;;;;;;;78.20;56.67;;;10.90;80.60;;;;;;5053731;28;20124;-78
2022/03/24 08:54:54;;;;;;;67.82;47.22;;;11.00;80.30;;;;;;5036954;28;20049;-78
2022/03/24 08:57:27;;;;;;;75.07;51.30;;;11.10;79.70;;;;;;5052315;28;20083;-79
2022/03/24 09:00:00;;;;;;;70.38;46.90;;;11.20;78.80;;;;;;5053509;28;20049;-79
2022/03/24 09:02:26;;;;;;;68.63;49.55;;;11.30;78.30;;;;;;5036780;28;20095;-79
2022/03/24 09:04:52;;;;;;;72.03;50.83;;;11.50;77.50;;;;;;5053362;28;20083;-80
2022/03/24 09:07:18;;;;;;;76.22;51.08;;;11.60;76.80;;;;;;5020248;28;20072;-79
2022/03/24 09:09:44;;;;;;;75.18;50.03;;;11.70;75.90;;;;;;5053230;28;20095;-80
2022/03/24 09:12:11;;;;;;;69.15;49.67;;;11.80;76.00;;;;;;5053504;28;20106;-80
2022/03/24 09:14:40;;;;;;;78.10;52.30;;;11.90;76.00;;;;;;5053184;28;20052;-80
2022/03/24 09:17:08;;;;;;;69.10;49.20;;;12.00;76.00;;;;;;5052947;28;20497;-80
2022/03/24 09:19:36;;;;;;;67.38;48.42;;;12.20;74.90;;;;;;5053372;28;20037;-80
2022/03/24 09:22:05;;;;;;;76.45;54.45;;;12.30;74.30;;;;;;5053076;28;20098;-80
2022/03/24 09:24:33;;;;;;;70.20;50.33;;;12.40;74.50;;;;;;5015457;28;20056;-80
2022/03/24 09:27:00;;;;;;;68.25;47.40;;;12.50;73.90;;;;;;5015529;28;20534;-80
2022/03/24 09:29:26;;;;;;;62.30;44.85;;;12.60;73.60;;;;;;5015266;28;20057;-80
2022/03/24 09:31:52;;;;;;;63.30;47.15;;;12.80;73.20;;;;;;5015714;28;20160;-80
2022/03/24 09:34:18;;;;;;;70.18;49.35;;;12.80;72.10;;;;;;4998820;28;20545;-80
2022/03/24 09:36:44;;;;;;;66.60;45.60;;;13.00;71.60;;;;;;5015140;28;20045;-80
2022/03/24 09:39:11;;;;;;;67.90;48.95;;;13.00;71.60;;;;;;4998915;28;20506;-80
2022/03/24 09:41:38;;;;;;;62.15;43.72;;;13.20;71.50;;;;;;5015216;28;20084;-80
2022/03/24 09:44:04;;;;;;;69.32;48.33;;;13.40;70.70;;;;;;5015439;28;20049;-81
2022/03/24 09:46:31;;;;;;;60.83;43.67;;;13.50;70.10;;;;;;4998770;28;20045;-80
2022/03/24 09:48:58;;;;;;;63.17;45.40;;;13.70;70.20;;;;;;5015084;28;20041;-80
2022/03/24 09:51:29;;;;;;;59.80;41.30;;;13.80;70.20;;;;;;4999136;28;20421;-81
2022/03/24 09:53:55;;;;;;;55.10;41.70;;;13.80;67.80;;;;;;5015032;28;20124;-80
2022/03/24 09:56:20;;;;;;;59.17;42.25;;;14.00;67.00;;;;;;5046373;28;20088;-80
2022/03/24 09:58:49;;;;;;;54.17;40.13;;;14.00;65.00;;;;;;5052465;28;20103;-81
2022/03/24 10:01:17;;;;;;;53.35;40.85;;;14.10;64.70;;;;;;5035711;28;20044;-81
2022/03/24 10:04:07;;;;;;;52.42;38.65;;;14.20;65.00;;;;;;5035991;28;20132;-81
2022/03/24 10:06:34;;;;;;;54.88;37.33;;;14.40;63.70;;;;;;5035832;28;20068;-81
2022/03/24 10:09:00;;;;;;;48.20;37.85;;;14.50;62.60;;;;;;5051876;28;20045;-81
2022/03/24 10:11:27;;;;;;;52.72;37.28;;;14.60;62.00;;;;;;5052101;28;20033;-81
2022/03/24 10:13:55;;;;;;;48.78;37.60;;;14.70;60.20;;;;;;5052031;28;20051;-81
2022/03/24 10:16:33;;;;;;;47.67;35.97;;;14.80;60.40;;;;;;5035555;28;20081;-81
2022/03/24 10:19:06;;;;;;;44.38;33.75;;;15.00;59.80;;;;;;5052224;28;20473;-81
2022/03/24 10:21:35;;;;;;;51.15;38.95;;;15.10;59.60;;;;;;5052198;28;20613;-81
2022/03/24 10:24:11;;;;;;;45.90;36.25;;;15.20;59.60;;;;;;5052156;28;20037;-81
2022/03/24 10:27:02;;;;;;;47.00;34.20;;;15.30;58.60;;;;;;5051856;28;20048;-81
2022/03/24 10:29:29;;;;;;;47.60;36.15;;;15.30;57.70;;;;;;5051529;28;20057;-81
2022/03/24 10:31:59;;;;;;;46.42;33.65;;;15.50;57.80;;;;;;5052137;28;20033;-81
2022/03/24 10:34:32;;;;;;;47.78;34.35;;;15.60;57.40;;;;;;5035153;28;20098;-81
2022/03/24 10:37:05;;;;;;;42.25;30.35;;;15.70;56.40;;;;;;5051827;28;20041;-81
2022/03/24 10:39:32;;;;;;;39.42;30.75;;;15.80;55.20;;;;;;5035296;28;20132;-81
2022/03/24 10:42:18;;;;;;;40.53;30.02;;;15.80;53.70;;;;;;5035380;28;20037;-82
2022/03/24 10:45:02;;;;;;;46.05;32.22;;;16.00;53.40;;;;;;5051872;28;20489;-81
2022/03/24 10:47:55;;;;;;;43.00;29.85;;;16.00;52.60;;;;;;5034986;28;20127;-81
2022/03/24 10:50:40;;;;;;;44.70;32.47;;;16.10;52.10;;;;;;5051673;28;20045;-82
2022/03/24 10:53:19;;;;;;;47.92;33.30;;;16.20;52.30;;;;;;5051629;28;20045;-82
2022/03/24 10:55:49;;;;;;;44.30;33.67;;;16.30;52.00;;;;;;5034869;28;20127;-82
2022/03/24 10:58:38;;;;;;;51.53;37.65;;;16.30;52.00;;;;;;5034887;28;20041;-82
2022/03/24 11:01:06;;;;;;;50.92;38.38;;;16.40;52.30;;;;;;5051483;28;20227;-82
2022/03/24 11:03:33;;;;;;;49.78;36.63;;;16.50;52.80;;;;;;5051780;28;20037;-82
2022/03/24 11:06:12;;;;;;;53.20;41.40;;;16.60;53.30;;;;;;5034902;28;20033;-82
2022/03/24 11:08:38;;;;;;;55.67;39.40;;;16.60;53.00;;;;;;5034775;28;20134;-82
2022/03/24 11:11:10;;;;;;;50.42;38.83;;;16.80;53.60;;;;;;5051642;28;20037;-82
2022/03/24 11:13:44;;;;;;;58.38;41.60;;;16.80;51.90;;;;;;5051515;28;20077;-81
2022/03/24 11:16:14;;;;;;;58.25;41.60;;;16.90;52.00;;;;;;5034790;28;20045;-82
2022/03/24 11:18:40;;;;;;;52.22;38.90;;;17.10;52.50;;;;;;5051334;28;20041;-81
2022/03/24 11:21:29;;;;;;;54.15;40.83;;;17.20;52.30;;;;;;5055101;28;20465;-82
2022/03/24 11:23:55;;;;;;;57.50;40.45;;;17.30;51.80;;;;;;5034985;28;20059;-82
2022/03/24 11:26:25;;;;;;;54.92;40.15;;;17.50;52.20;;;;;;5055285;28;20552;-83
2022/03/24 11:28:54;;;;;;;56.45;40.10;;;17.60;50.70;;;;;;5055316;28;20068;-83
2022/03/24 11:31:20;;;;;;;55.95;39.60;;;17.70;50.70;;;;;;5055119;28;20041;-82
2022/03/24 11:33:49;;;;;;;56.20;40.25;;;17.80;51.50;;;;;;5055119;28;20045;-82
2022/03/24 11:36:17;;;;;;;55.92;41.28;;;17.90;50.40;;;;;;5054989;28;20485;-82
2022/03/24 11:38:47;;;;;;;58.10;41.50;;;18.00;51.00;;;;;;5038369;28;20405;-81
2022/03/24 11:41:17;;;;;;;51.45;37.22;;;18.10;50.30;;;;;;5054945;28;20512;-82
2022/03/24 11:43:51;;;;;;;56.38;41.25;;;18.10;50.00;;;;;;5038640;28;20045;-82
2022/03/24 11:46:28;;;;;;;57.33;42.25;;;18.20;50.60;;;;;;5054816;28;20041;-82
2022/03/24 11:49:16;;;;;;;52.72;39.58;;;18.30;50.30;;;;;;5054841;28;20052;-82
2022/03/24 11:51:44;;;;;;;49.95;36.60;;;18.40;49.70;;;;;;5039144;28;20045;-82
2022/03/24 11:54:10;;;;;;;54.90;39.78;;;18.50;49.50;;;;;;5038315;28;20076;-81
2022/03/24 11:56:36;;;;;;;52.72;36.88;;;18.50;48.80;;;;;;5055071;28;20518;-82
2022/03/24 11:59:03;;;;;;;56.88;37.47;;;18.50;47.70;;;;;;5038534;28;20074;-82
2022/03/24 12:01:32;;;;;;;50.95;33.85;;;18.50;48.00;;;;;;5038155;28;20048;-82
2022/03/24 12:04:08;;;;;;;52.42;34.92;;;18.60;47.40;;;;;;5054632;28;20044;-81
2022/03/24 12:06:48;;;;;;;55.17;36.47;;;18.60;46.90;;;;;;5054577;28;20036;-82
2022/03/24 12:09:23;;;;;;;49.33;32.55;;;18.70;46.70;;;;;;5038229;28;20123;-82
2022/03/24 12:11:51;;;;;;;46.88;35.42;;;18.80;46.90;;;;;;5054465;28;20478;-81
2022/03/24 12:14:42;;;;;;;48.85;33.72;;;18.80;46.20;;;;;;5054676;28;20447;-81
2022/03/24 12:17:22;;;;;;;42.30;30.73;;;18.90;47.30;;;;;;5053607;28;20045;-81
2022/03/24 12:19:53;;;;;;;42.47;33.28;;;19.00;47.60;;;;;;5054551;28;20120;-82
2022/03/24 12:22:42;;;;;;;44.35;34.33;;;19.00;46.10;;;;;;5054231;28;20067;-83
2022/03/24 12:25:10;;;;;;;40.13;31.73;;;19.10;45.50;;;;;;5037864;28;20044;-82
2022/03/24 12:28:21;;;;;;;38.42;26.67;;;19.20;46.50;;;;;;5054216;28;20047;-82
2022/03/24 12:31:08;;;;;;;38.15;28.02;;;19.30;44.20;;;;;;5037317;28;20052;-83
2022/03/24 12:33:47;;;;;;;36.45;27.05;;;19.40;44.60;;;;;;5053993;28;20489;-83
2022/03/24 12:36:14;;;;;;;41.45;30.40;;;19.50;44.30;;;;;;5053956;28;20049;-83
2022/03/24 12:38:46;;;;;;;31.58;24.88;;;19.50;44.30;;;;;;5037512;28;20048;-83